Time;durP1;ratioP1;P1;durP2;ratioP2;P2;SDS_P1;SDS_P2;PMS_P1;PMS_P2;Temp;Humidity;BMP_temperature;BMP_pressure;BME280_temperature;BME280_humidity;BME280_pressure;Samples;Min_cycle;Max_cycle;Signal;HPM_P1;HPM_P2
2021/05/18 00:00:00;;;;;;;4.60;4.00;;;;;;;12.05;73.16;99186.70;102236;1121;81107;-63
2021/05/18 00:02:06;;;;;;;4.50;3.90;;;;;;;12.07;73.20;99189.16;102230;1121;79665;-63
2021/05/18 00:04:15;;;;;;;4.50;3.80;;;;;;;12.08;73.24;99191.66;102228;1121;80884;-63
2021/05/18 00:06:21;;;;;;;6.50;4.30;;;;;;;12.10;73.25;99194.12;102218;1121;80016;-63
2021/05/18 00:08:28;;;;;;;5.20;4.10;;;;;;;12.10;73.20;99184.13;102235;1120;80692;-63
2021/05/18 00:13:24;;;;;;;5.60;4.00;;;;;;;12.11;73.33;99187.66;102208;1121;80220;-63
2021/05/18 00:15:30;;;;;;;4.70;4.00;;;;;;;12.11;73.32;99188.49;102209;1121;80129;-63
2021/05/18 00:17:36;;;;;;;5.40;4.00;;;;;;;12.09;73.55;99184.33;102228;1120;80515;-63
2021/05/18 00:19:45;;;;;;;7.10;4.80;;;;;;;12.12;73.54;99190.13;102250;1121;79501;-64
2021/05/18 00:21:52;;;;;;;6.80;4.60;;;;;;;12.13;73.69;99189.08;102172;1122;80302;-64
2021/05/18 00:23:58;;;;;;;5.30;4.40;;;;;;;12.13;73.69;99180.96;102213;1122;80656;-62
2021/05/18 00:26:04;;;;;;;7.80;4.80;;;;;;;12.14;73.77;99182.59;102208;1121;80372;-62
2021/05/18 00:28:11;;;;;;;7.50;4.80;;;;;;;12.15;74.02;99178.84;102249;1121;79351;-62
2021/05/18 00:30:19;;;;;;;5.10;4.50;;;;;;;12.17;73.93;99184.02;102215;1121;80734;-62
2021/05/18 00:32:25;;;;;;;6.20;4.30;;;;;;;12.19;73.89;99188.17;102229;1122;79265;-63
2021/05/18 00:34:31;;;;;;;6.50;4.40;;;;;;;12.20;73.92;99187.09;102198;1121;81366;-63
2021/05/18 00:36:38;;;;;;;5.00;4.20;;;;;;;12.22;73.98;99187.69;102230;1120;80656;-64
2021/05/18 00:38:47;;;;;;;6.50;4.40;;;;;;;12.18;74.14;99188.38;102212;1121;79492;-63
2021/05/18 00:40:56;;;;;;;4.90;3.90;;;;;;;12.16;74.08;99182.38;102223;1121;80849;-63
2021/05/18 00:43:02;;;;;;;5.50;4.70;;;;;;;12.14;74.24;99185.30;102231;1121;80454;-62
2021/05/18 00:45:10;;;;;;;5.80;4.30;;;;;;;12.08;74.23;99191.66;102242;1121;79616;-62
2021/05/18 00:47:17;;;;;;;6.70;4.50;;;;;;;12.06;74.07;99188.33;102237;1121;80102;-62
2021/05/18 00:49:22;;;;;;;6.00;4.60;;;;;;;12.01;74.16;99188.19;102248;1121;78964;-63
2021/05/18 00:51:30;;;;;;;5.40;4.40;;;;;;;12.00;74.24;99178.44;102212;1120;79764;-63
2021/05/18 00:53:38;;;;;;;5.80;4.70;;;;;;;11.98;74.42;99175.11;102216;1122;80013;-63
2021/05/18 00:55:50;;;;;;;5.20;4.60;;;;;;;11.91;74.56;99181.67;102213;1122;80947;-62
2021/05/18 01:00:21;;;;;;;6.20;4.60;;;;;;;11.68;74.74;99176.91;102226;1122;80523;-63
2021/05/18 01:02:27;;;;;;;5.10;4.50;;;;;;;11.65;74.90;99171.95;102233;1121;81098;-63
2021/05/18 01:04:33;;;;;;;6.80;4.80;;;;;;;11.59;74.77;99179.09;102191;1120;79630;-63
2021/05/18 01:06:40;;;;;;;5.50;4.80;;;;;;;11.54;75.01;99170.83;102227;1121;79947;-63
2021/05/18 01:08:46;;;;;;;7.00;5.60;;;;;;;11.48;75.06;99171.72;102237;1121;80684;-62
2021/05/18 01:10:53;;;;;;;5.60;4.90;;;;;;;11.37;75.18;99167.06;102218;1121;80139;-62
2021/05/18 01:12:59;;;;;;;5.50;4.60;;;;;;;11.33;75.12;99178.56;102197;1121;83159;-62
2021/05/18 01:15:07;;;;;;;5.70;4.50;;;;;;;11.28;75.00;99175.70;102224;1121;81637;-62
2021/05/18 01:17:13;;;;;;;5.70;4.70;;;;;;;11.25;75.20;99176.98;102223;1122;80459;-62
2021/05/18 01:19:24;;;;;;;6.00;4.80;;;;;;;11.22;75.43;99163.91;102220;1121;81018;-62
2021/05/18 01:21:31;;;;;;;7.30;5.00;;;;;;;11.20;75.44;99169.55;102255;1122;80237;-62
2021/05/18 01:23:46;;;;;;;6.40;5.50;;;;;;;11.16;75.72;99170.20;102202;1121;79193;-62
2021/05/18 01:25:52;;;;;;;6.00;5.40;;;;;;;11.11;75.72;99170.88;102201;1121;80416;-63
2021/05/18 01:27:58;;;;;;;9.40;5.40;;;;;;;11.04;75.93;99170.09;102217;1120;80951;-63
2021/05/18 01:30:06;;;;;;;7.20;5.80;;;;;;;11.04;75.94;99169.30;102209;1122;81530;-63
2021/05/18 01:32:11;;;;;;;7.40;5.70;;;;;;;11.05;76.02;99163.66;102194;1120;79575;-62
2021/05/18 01:34:17;;;;;;;6.20;5.40;;;;;;;11.05;76.42;99155.55;102233;1122;80547;-62
2021/05/18 01:36:26;;;;;;;9.00;5.50;;;;;;;11.03;76.14;99162.23;102193;1120;80026;-62
2021/05/18 01:38:37;;;;;;;6.90;5.70;;;;;;;11.02;76.23;99150.59;102245;1121;80741;-62
2021/05/18 01:43:07;;;;;;;6.80;6.00;;;;;;;11.10;76.56;99149.47;102182;1122;79410;-62
2021/05/18 01:45:18;;;;;;;7.10;6.20;;;;;;;11.16;76.69;99149.41;102186;1120;80763;-63
2021/05/18 01:47:27;;;;;;;7.40;5.90;;;;;;;11.20;76.73;99142.52;102229;1120;80689;-63
2021/05/18 01:49:35;;;;;;;6.50;5.60;;;;;;;11.29;76.74;99142.22;102238;1121;81930;-63
2021/05/18 01:51:44;;;;;;;8.20;5.50;;;;;;;11.36;76.92;99151.08;102209;1120;80941;-62
2021/05/18 01:53:49;;;;;;;7.40;5.90;;;;;;;11.45;76.94;99149.73;102192;1120;81738;-62
2021/05/18 01:56:13;;;;;;;6.70;6.00;;;;;;;11.53;76.90;99154.84;102242;1121;81031;-62
2021/05/18 01:58:18;;;;;;;7.00;6.30;;;;;;;11.58;76.98;99158.52;102214;1122;81009;-62
2021/05/18 02:00:28;;;;;;;7.30;6.00;;;;;;;11.66;76.77;99165.50;102219;1120;80692;-63
2021/05/18 02:02:34;;;;;;;7.50;6.30;;;;;;;11.70;76.80;99158.63;102211;1121;81462;-63
2021/05/18 02:04:44;;;;;;;8.40;6.10;;;;;;;11.71;76.82;99165.67;102236;1121;80399;-63
2021/05/18 02:06:50;;;;;;;7.20;6.50;;;;;;;11.74;76.78;99166.05;102231;1122;80346;-62
2021/05/18 02:08:56;;;;;;;8.00;7.30;;;;;;;11.77;76.76;99165.61;102208;1121;80931;-62
2021/05/18 02:11:02;;;;;;;7.00;6.10;;;;;;;11.80;76.84;99167.86;102219;1121;80567;-62
2021/05/18 02:13:11;;;;;;;7.50;6.70;;;;;;;11.81;76.93;99174.91;102198;1121;80927;-62
2021/05/18 02:15:30;;;;;;;7.50;6.80;;;;;;;11.88;76.99;99176.70;102033;1123;80405;-62
2021/05/18 02:17:39;;;;;;;8.00;7.00;;;;;;;11.97;76.97;99180.77;102228;1121;80896;-61
2021/05/18 02:20:10;;;;;;;7.80;7.00;;;;;;;12.05;76.86;99175.87;102205;1121;80641;-62
2021/05/18 02:24:35;;;;;;;10.50;7.70;;;;;;;12.09;76.85;99174.34;102218;1120;80750;-62
2021/05/18 02:25:01;;;;;;;9.80;7.60;;;;;;;12.12;77.07;99175.76;102192;1121;79952;-61
2021/05/18 02:27:08;;;;;;;10.00;8.60;;;;;;;12.13;77.04;99178.25;102158;1121;79697;-62
2021/05/18 02:29:17;;;;;;;8.30;7.30;;;;;;;12.16;77.07;99177.80;102218;1120;80341;-62
2021/05/18 02:31:23;;;;;;;8.80;7.90;;;;;;;12.22;77.18;99176.05;102225;1121;79630;-62
2021/05/18 02:33:29;;;;;;;9.30;8.40;;;;;;;12.27;77.10;99181.60;102221;1121;80309;-62
2021/05/18 02:35:35;;;;;;;9.80;7.60;;;;;;;12.30;77.18;99184.69;102178;1122;81712;-62
2021/05/18 02:37:42;;;;;;;8.90;7.80;;;;;;;12.34;77.23;99185.03;102218;1121;79403;-61
2021/05/18 02:39:48;;;;;;;9.60;8.10;;;;;;;12.39;77.05;99185.99;102261;1121;80176;-61
2021/05/18 02:41:53;;;;;;;8.90;7.90;;;;;;;12.45;77.12;99184.24;102227;1122;80813;-61
2021/05/18 02:44:02;;;;;;;9.80;7.40;;;;;;;12.50;77.05;99181.66;102236;1121;80440;-62
2021/05/18 02:46:17;;;;;;;8.40;7.00;;;;;;;12.53;77.10;99175.78;102206;1121;80445;-62
2021/05/18 02:50:47;;;;;;;8.70;7.90;;;;;;;12.62;77.08;99184.41;102202;1122;80094;-61
2021/05/18 02:52:53;;;;;;;8.30;7.50;;;;;;;12.66;77.10;99185.61;102222;1121;79852;-62
2021/05/18 02:55:01;;;;;;;7.30;6.50;;;;;;;12.70;76.90;99187.61;102222;1120;80821;-61
2021/05/18 02:57:10;;;;;;;8.70;7.50;;;;;;;12.71;77.04;99186.56;102448;1117;80245;-62
2021/05/18 02:59:17;;;;;;;7.60;6.80;;;;;;;12.70;76.85;99192.20;102442;1118;80347;-63
2021/05/18 03:01:23;;;;;;;7.50;6.20;;;;;;;12.71;76.77;99183.03;102467;1118;79800;-63
2021/05/18 03:03:29;;;;;;;8.40;7.30;;;;;;;12.66;77.03;99185.61;102446;1118;79934;-63
2021/05/18 03:05:35;;;;;;;8.00;7.00;;;;;;;12.57;77.00;99176.98;102440;1119;81137;-62
2021/05/18 03:07:40;;;;;;;8.00;7.20;;;;;;;12.51;77.01;99188.74;102457;1117;80260;-62
2021/05/18 03:09:46;;;;;;;8.40;7.10;;;;;;;12.54;77.09;99187.45;102452;1117;80171;-63
2021/05/18 03:11:57;;;;;;;8.30;7.10;;;;;;;12.52;77.08;99184.98;102468;1118;79716;-63
2021/05/18 03:14:04;;;;;;;7.90;7.10;;;;;;;12.51;77.23;99182.50;102444;1117;80945;-62
2021/05/18 03:16:10;;;;;;;9.30;7.80;;;;;;;12.52;77.29;99184.16;102478;1117;79170;-62
2021/05/18 03:18:15;;;;;;;8.80;7.90;;;;;;;12.51;77.29;99188.74;102468;1117;79700;-62
2021/05/18 03:20:21;;;;;;;9.30;8.30;;;;;;;12.48;77.25;99196.50;102436;1118;79648;-64
2021/05/18 03:22:27;;;;;;;8.60;7.70;;;;;;;12.46;77.31;99195.91;102439;1118;79653;-64
2021/05/18 03:24:33;;;;;;;8.20;7.50;;;;;;;12.52;77.24;99197.70;102446;1117;79727;-62
2021/05/18 03:26:45;;;;;;;8.80;7.80;;;;;;;12.58;77.22;99204.91;102435;1118;80649;-61
2021/05/18 03:28:56;;;;;;;7.60;6.90;;;;;;;12.62;77.28;99198.79;102478;1117;81252;-63
2021/05/18 03:31:16;;;;;;;8.00;7.00;;;;;;;12.67;77.21;99203.50;102437;1117;79846;-64
2021/05/18 03:35:46;;;;;;;9.40;7.60;;;;;;;12.74;77.15;99199.66;102442;1117;80770;-64
2021/05/18 03:37:57;;;;;;;9.10;7.50;;;;;;;12.77;77.25;99204.58;102448;1117;81280;-63
2021/05/18 03:40:07;;;;;;;8.60;7.80;;;;;;;12.76;77.12;99204.83;102487;1119;80908;-63
2021/05/18 03:42:16;;;;;;;8.40;7.60;;;;;;;12.79;77.20;99202.48;102465;1117;79238;-63
2021/05/18 03:44:28;;;;;;;9.80;7.80;;;;;;;12.83;77.24;99191.98;102451;1118;80679;-63
2021/05/18 03:53:51;;;;;;;9.10;7.90;;;;;;;12.85;77.35;99200.73;102464;1117;80719;-62
2021/05/18 03:58:36;;;;;;;8.60;7.70;;;;;;;12.97;77.27;99210.52;102457;1117;80936;-63
2021/05/18 04:03:19;;;;;;;9.40;8.50;;;;;;;13.16;77.19;99215.89;102456;1118;79054;-63
2021/05/18 04:10:34;;;;;;;10.10;8.60;;;;;;;13.39;77.30;99203.16;102459;1117;79696;-62
2021/05/18 04:12:45;;;;;;;11.10;9.00;;;;;;;13.51;77.48;99203.95;102444;1117;79423;-62
2021/05/18 04:17:15;;;;;;;10.80;9.80;;;;;;;13.83;77.40;99211.70;102434;1119;80820;-63
2021/05/18 04:19:29;;;;;;;9.30;8.50;;;;;;;13.93;77.06;99210.03;102414;1118;81848;-64
2021/05/18 04:21:46;;;;;;;9.90;8.60;;;;;;;13.99;76.92;99213.67;102431;1118;80656;-63
2021/05/18 04:24:03;;;;;;;10.40;9.50;;;;;;;14.05;76.85;99215.44;102437;1119;80172;-63
2021/05/18 04:26:29;;;;;;;10.20;8.80;;;;;;;14.09;76.75;99211.19;102454;1119;81339;-63
2021/05/18 04:41:08;;;;;;;11.80;10.00;;;;;;;14.97;76.15;99221.55;102440;1117;79685;-62
2021/05/18 04:48:43;;;;;;;11.00;8.20;;;;;;;15.70;75.43;99214.02;102431;1118;80648;-62
2021/05/18 04:51:09;;;;;;;9.40;8.60;;;;;;;16.18;75.11;99207.80;102462;1119;80582;-64
2021/05/18 04:53:20;;;;;;;11.00;7.60;;;;;;;16.92;74.64;99211.61;102466;1117;80164;-64
2021/05/18 05:00:17;;;;;;;7.80;6.90;;;;;;;17.65;72.51;99213.58;102494;1118;79058;-64
2021/05/18 05:02:52;;;;;;;7.70;7.00;;;;;;;18.07;72.05;99209.97;102458;1119;80708;-64
2021/05/18 05:07:29;;;;;;;8.60;6.40;;;;;;;19.73;68.52;99203.88;102357;1118;80911;-64
2021/05/18 05:09:37;;;;;;;5.60;5.10;;;;;;;20.18;68.02;99206.48;102475;1119;83162;-62
2021/05/18 05:14:22;;;;;;;7.50;5.70;;;;;;;21.04;66.20;99214.23;102460;1118;81039;-64
2021/05/18 05:16:28;;;;;;;6.30;5.20;;;;;;;21.10;64.76;99202.12;102475;1117;80998;-63
2021/05/18 05:18:34;;;;;;;5.20;3.90;;;;;;;21.21;63.42;99206.42;102475;1116;81304;-64
2021/05/18 05:20:40;;;;;;;5.60;5.10;;;;;;;21.36;63.30;99213.72;102435;1118;80584;-64
2021/05/18 05:22:46;;;;;;;6.10;4.80;;;;;;;21.24;61.98;99208.59;102494;1118;80952;-64
2021/05/18 05:24:51;;;;;;;5.10;4.30;;;;;;;22.27;62.57;99206.16;102447;1119;80079;-62
2021/05/18 05:26:58;;;;;;;5.30;4.10;;;;;;;23.60;59.54;99209.38;102459;1117;81425;-63
2021/05/18 05:29:08;;;;;;;5.20;4.30;;;;;;;23.14;58.47;99217.59;102479;1117;80929;-64
2021/05/18 05:31:14;;;;;;;4.50;3.90;;;;;;;22.50;57.60;99218.23;102464;1119;79075;-64
2021/05/18 05:33:20;;;;;;;4.80;4.10;;;;;;;21.73;57.82;99219.39;102453;1118;81116;-64
2021/05/18 05:35:26;;;;;;;5.10;4.10;;;;;;;20.91;58.15;99223.09;102447;1118;79133;-64
2021/05/18 05:37:31;;;;;;;5.00;4.40;;;;;;;20.18;58.56;99224.85;102441;1117;79962;-64
2021/05/18 05:39:37;;;;;;;4.80;4.40;;;;;;;19.78;59.19;99225.78;102466;1118;80257;-62
2021/05/18 05:41:43;;;;;;;5.30;4.40;;;;;;;19.42;59.53;99225.84;102490;1119;80628;-63
2021/05/18 05:43:52;;;;;;;5.90;4.30;;;;;;;18.99;60.19;99229.10;102457;1117;81703;-62
2021/05/18 05:45:57;;;;;;;6.50;4.80;;;;;;;18.68;60.80;99238.34;102476;1117;80815;-60
2021/05/18 05:48:03;;;;;;;6.20;4.70;;;;;;;18.34;61.00;99235.23;102457;1117;79115;-61
2021/05/18 05:50:12;;;;;;;4.80;3.90;;;;;;;18.15;61.59;99239.52;102475;1118;80979;-60
2021/05/18 05:52:23;;;;;;;6.40;4.50;;;;;;;18.04;61.77;99237.83;102496;1118;80830;-61
2021/05/18 05:54:29;;;;;;;7.50;5.40;;;;;;;17.91;62.40;99236.38;102507;1118;80332;-60
2021/05/18 05:56:35;;;;;;;6.40;4.50;;;;;;;17.81;62.53;99236.34;102488;1118;81211;-62
2021/05/18 05:58:44;;;;;;;7.00;4.90;;;;;;;17.67;62.89;99240.61;102439;1118;81547;-61
2021/05/18 06:00:50;;;;;;;6.60;5.20;;;;;;;17.64;63.06;99246.60;102484;1118;80918;-62
2021/05/18 06:02:59;;;;;;;6.10;5.50;;;;;;;17.59;63.21;99252.03;102509;1118;79789;-62
2021/05/18 06:05:07;;;;;;;5.50;4.80;;;;;;;17.84;63.66;99233.08;102474;1118;80687;-62
2021/05/18 06:07:13;;;;;;;5.80;5.20;;;;;;;17.85;63.36;99242.10;102506;1117;79337;-62
2021/05/18 06:09:18;;;;;;;5.50;4.60;;;;;;;17.84;63.33;99241.27;102490;1118;80820;-62
2021/05/18 06:11:31;;;;;;;6.30;5.50;;;;;;;17.74;63.36;99245.86;102449;1119;80134;-62
2021/05/18 06:14:01;;;;;;;6.20;5.30;;;;;;;17.62;63.45;99246.88;102473;1118;81676;-62
2021/05/18 06:37:49;;;;;;;8.20;6.10;;;;;;;16.60;64.94;99256.29;102488;1118;80313;-62
2021/05/18 06:42:35;;;;;;;7.00;6.30;;;;;;;16.53;65.24;99257.30;102482;1118;79599;-62
2021/05/18 06:49:43;;;;;;;7.70;6.70;;;;;;;16.33;65.62;99270.69;102457;1117;80946;-61
2021/05/18 06:51:49;;;;;;;7.70;6.90;;;;;;;16.38;65.79;99275.36;102467;1118;80020;-62
2021/05/18 06:53:55;;;;;;;8.10;7.30;;;;;;;16.47;66.07;99268.39;102465;1117;80971;-62
2021/05/18 06:56:02;;;;;;;8.30;7.20;;;;;;;16.55;66.16;99267.97;102474;1117;79722;-61
2021/05/18 06:58:10;;;;;;;8.20;7.30;;;;;;;16.60;65.99;99259.02;102485;1117;81523;-60
2021/05/18 07:00:19;;;;;;;8.10;7.40;;;;;;;16.56;66.35;99269.63;102480;1118;80817;-63
2021/05/18 07:02:28;;;;;;;7.90;6.90;;;;;;;16.62;66.39;99268.59;102498;1118;81372;-62
2021/05/18 07:04:37;;;;;;;8.70;7.00;;;;;;;16.69;66.41;99269.23;102489;1118;80489;-60
2021/05/18 07:06:48;;;;;;;9.00;7.00;;;;;;;16.68;66.22;99272.19;102489;1117;80519;-61
2021/05/18 07:08:56;;;;;;;8.80;7.10;;;;;;;16.66;66.20;99274.36;102485;1118;80595;-60
2021/05/18 07:11:01;;;;;;;7.20;6.60;;;;;;;16.66;66.20;99277.91;102510;1118;79322;-60
2021/05/18 07:13:07;;;;;;;9.30;6.60;;;;;;;16.67;66.00;99276.84;102492;1118;80393;-60
2021/05/18 07:15:16;;;;;;;7.80;7.10;;;;;;;16.58;66.01;99281.09;102479;1117;80273;-60
2021/05/18 07:17:21;;;;;;;8.20;7.40;;;;;;;16.51;66.29;99280.42;102484;1117;79196;-59
2021/05/18 07:19:27;;;;;;;7.80;6.60;;;;;;;16.43;66.56;99278.14;102455;1118;81187;-60
2021/05/18 07:21:33;;;;;;;8.20;7.20;;;;;;;16.35;66.54;99281.32;102459;1113;80094;-61
2021/05/18 07:23:42;;;;;;;7.80;6.80;;;;;;;16.44;66.55;99283.36;102468;1118;81329;-61
2021/05/18 07:25:48;;;;;;;7.70;7.00;;;;;;;16.47;66.43;99285.58;102449;1118;80328;-62
2021/05/18 07:27:54;;;;;;;7.80;6.80;;;;;;;16.42;66.85;99290.14;102465;1118;79770;-63
2021/05/18 07:30:00;;;;;;;7.70;7.00;;;;;;;16.35;67.01;99287.60;102488;1118;80892;-62
2021/05/18 07:32:10;;;;;;;7.60;6.90;;;;;;;16.38;67.02;99288.99;102488;1117;78860;-62
2021/05/18 07:34:15;;;;;;;6.90;6.30;;;;;;;16.43;66.98;99287.16;102460;1117;80893;-59
2021/05/18 07:36:21;;;;;;;8.80;7.10;;;;;;;16.49;66.89;99291.59;102464;1117;79440;-59
2021/05/18 07:38:27;;;;;;;8.70;7.10;;;;;;;16.51;66.72;99288.59;102488;1118;80275;-60
2021/05/18 07:40:34;;;;;;;8.20;6.10;;;;;;;16.55;67.07;99284.33;102465;1117;79660;-60
2021/05/18 07:42:40;;;;;;;7.40;6.50;;;;;;;16.54;66.83;99285.40;102476;1118;81250;-62
2021/05/18 07:44:49;;;;;;;7.10;6.00;;;;;;;16.55;67.12;99284.33;102469;1117;80214;-63
2021/05/18 07:46:55;;;;;;;6.70;6.10;;;;;;;16.60;66.85;99286.28;102457;1117;80179;-63
2021/05/18 07:49:14;;;;;;;6.80;6.20;;;;;;;16.70;67.06;99287.22;102490;1117;80409;-61
2021/05/18 07:51:33;;;;;;;7.00;6.10;;;;;;;16.69;66.88;99284.76;102460;1117;80397;-59
2021/05/18 08:05:43;;;;;;;6.60;5.90;;;;;;;17.25;66.30;99299.80;102465;1117;81192;-64
2021/05/18 08:07:49;;;;;;;7.60;5.50;;;;;;;17.33;66.48;99293.86;102465;1117;81587;-61
2021/05/18 08:09:57;;;;;;;6.40;5.00;;;;;;;17.47;66.24;99297.80;102456;1118;78990;-65
2021/05/18 08:12:04;;;;;;;8.80;5.90;;;;;;;17.54;66.05;99298.42;102460;1118;80572;-63
2021/05/18 08:14:13;;;;;;;9.70;6.10;;;;;;;17.67;65.93;99296.07;102468;1117;80896;-62
2021/05/18 08:16:50;;;;;;;7.50;5.70;;;;;;;17.84;65.69;99297.82;102457;1118;81181;-60
2021/05/18 08:19:29;;;;;;;5.80;5.20;;;;;;;17.96;65.24;99299.28;102452;1118;80442;-61
2021/05/18 08:58:47;;;;;;;5.30;4.20;;;;;;;19.56;61.68;99312.98;102452;1118;80954;-60
2021/05/18 10:35:46;;;;;;;5.90;5.00;;;;;;;19.27;59.41;99346.33;102252;1120;80204;-60
2021/05/18 10:38:02;;;;;;;7.00;4.90;;;;;;;19.35;59.27;99340.31;102264;1120;80967;-63
2021/05/18 10:40:31;;;;;;;5.40;4.70;;;;;;;19.22;59.50;99348.23;102246;1120;80268;-62
2021/05/18 10:43:01;;;;;;;7.30;4.40;;;;;;;19.25;59.41;99347.70;102217;1121;79502;-62
2021/05/18 10:45:12;;;;;;;6.60;4.60;;;;;;;19.11;59.69;99341.92;102260;1121;80332;-62
2021/05/18 10:47:18;;;;;;;5.10;4.60;;;;;;;19.21;59.54;99341.11;102271;1122;80946;-62
2021/05/18 10:49:35;;;;;;;5.30;4.30;;;;;;;19.21;59.54;99341.93;102229;1120;80620;-62
2021/05/18 10:51:57;;;;;;;4.90;4.50;;;;;;;19.12;59.42;99342.72;102235;1121;79996;-63
2021/05/18 10:54:20;;;;;;;6.80;4.70;;;;;;;18.95;59.52;99342.98;102263;1120;79347;-60
2021/05/18 10:56:29;;;;;;;5.80;4.20;;;;;;;19.06;59.76;99343.83;102260;1122;80609;-60
2021/05/18 10:58:35;;;;;;;7.40;4.60;;;;;;;19.17;59.58;99340.02;102226;1121;79821;-60
2021/05/18 11:00:41;;;;;;;5.30;4.70;;;;;;;19.10;59.82;99334.80;102249;1121;79231;-62
2021/05/18 11:02:51;;;;;;;6.70;5.20;;;;;;;19.12;59.79;99335.33;102227;1122;81183;-63
2021/05/18 11:05:00;;;;;;;5.60;4.80;;;;;;;19.10;59.68;99333.96;102248;1122;81153;-59
2021/05/18 11:07:09;;;;;;;10.20;5.70;;;;;;;19.05;59.76;99336.70;102223;1121;80988;-59
2021/05/18 11:09:20;;;;;;;6.30;5.00;;;;;;;19.08;59.59;99338.89;102246;1120;79982;-62
2021/05/18 11:11:29;;;;;;;6.90;5.10;;;;;;;18.90;59.94;99334.73;102214;1120;79828;-63
2021/05/18 11:13:35;;;;;;;5.80;4.70;;;;;;;18.93;60.14;99341.58;102200;1122;83391;-63
2021/05/18 11:15:41;;;;;;;6.60;5.00;;;;;;;18.97;60.16;99340.78;102234;1120;80950;-60
2021/05/18 11:17:49;;;;;;;8.10;4.80;;;;;;;18.89;60.33;99333.10;102221;1121;80654;-60
2021/05/18 11:20:08;;;;;;;7.40;5.20;;;;;;;19.05;60.24;99339.43;102245;1120;80046;-62
2021/05/18 11:22:19;;;;;;;8.90;5.20;;;;;;;19.11;60.06;99328.23;102261;1121;80799;-62
2021/05/18 11:24:28;;;;;;;8.00;5.30;;;;;;;19.21;60.09;99325.50;102236;1121;81508;-60
2021/05/18 11:26:33;;;;;;;5.50;5.00;;;;;;;19.36;59.88;99332.92;102233;1122;80121;-61
2021/05/18 11:28:49;;;;;;;7.90;4.90;;;;;;;19.56;59.76;99321.20;102230;1122;79283;-62
2021/05/18 11:30:59;;;;;;;7.00;5.00;;;;;;;19.78;59.86;99340.89;102227;1122;80442;-59
2021/05/18 11:33:06;;;;;;;5.90;5.30;;;;;;;19.92;59.43;99342.81;102249;1121;80460;-62
2021/05/18 11:35:14;;;;;;;5.40;4.80;;;;;;;20.13;59.59;99338.13;102219;1122;80966;-65
2021/05/18 11:37:22;;;;;;;5.60;5.00;;;;;;;20.42;59.32;99344.66;102234;1121;79534;-68
2021/05/18 11:39:31;;;;;;;7.30;5.20;;;;;;;20.44;58.91;99349.86;102235;1121;81636;-60
2021/05/18 11:41:42;;;;;;;7.60;4.90;;;;;;;20.50;58.73;99357.80;102261;1120;78896;-62
2021/05/18 11:43:51;;;;;;;7.50;5.40;;;;;;;20.38;58.33;99351.80;102239;1120;80559;-61
2021/05/18 11:46:09;;;;;;;6.30;5.70;;;;;;;20.37;58.31;99358.40;102262;1121;80951;-64
2021/05/18 11:48:21;;;;;;;6.40;5.80;;;;;;;20.39;58.26;99353.45;102232;1121;80846;-59
2021/05/18 11:50:27;;;;;;;5.60;5.10;;;;;;;20.37;58.32;99358.40;102286;1122;80956;-65
2021/05/18 11:52:39;;;;;;;6.50;5.60;;;;;;;20.38;58.27;99357.28;102214;1121;81179;-64
2021/05/18 11:54:45;;;;;;;6.60;6.00;;;;;;;20.35;57.84;99352.38;102282;1120;80832;-62
2021/05/18 11:56:54;;;;;;;6.30;5.80;;;;;;;20.21;57.98;99350.45;102242;1121;80050;-60
2021/05/18 11:59:08;;;;;;;8.70;6.10;;;;;;;20.21;58.01;99359.50;102230;1121;80933;-62
2021/05/18 12:01:14;;;;;;;8.10;6.10;;;;;;;20.06;57.87;99351.29;102227;1120;80552;-62
2021/05/18 12:03:23;;;;;;;9.00;6.00;;;;;;;19.99;57.90;99351.59;102227;1120;80668;-63
2021/05/18 12:05:31;;;;;;;6.70;6.00;;;;;;;20.05;57.74;99368.86;102221;1120;79779;-64
2021/05/18 12:07:38;;;;;;;7.10;6.40;;;;;;;20.11;57.81;99361.45;102201;1120;81147;-61
2021/05/18 12:09:48;;;;;;;6.90;6.20;;;;;;;20.20;57.95;99363.34;102218;1120;80556;-63
2021/05/18 12:11:59;;;;;;;7.60;6.90;;;;;;;20.21;57.56;99366.91;102256;1121;78569;-60
2021/05/18 12:14:11;;;;;;;6.30;5.80;;;;;;;20.21;57.84;99366.91;102246;1122;81496;-64
2021/05/18 12:16:20;;;;;;;6.50;5.90;;;;;;;20.32;57.75;99360.33;102229;1121;80107;-62
2021/05/18 12:18:33;;;;;;;5.90;5.30;;;;;;;20.41;57.87;99364.95;102209;1120;79425;-62
2021/05/18 12:20:40;;;;;;;;;;;;;;;20.78;57.57;99358.25;102270;1121;80490;-60
2021/05/18 12:22:49;;;;;;;6.10;5.60;;;;;;;20.96;57.31;99369.41;102232;1121;80427;-60
2021/05/18 12:24:55;;;;;;;7.40;6.00;;;;;;;21.13;57.11;99366.34;102236;1122;79161;-60
2021/05/18 12:27:04;;;;;;;5.70;5.20;;;;;;;21.42;56.75;99359.03;102240;1120;80032;-62
2021/05/18 12:29:09;;;;;;;7.10;5.40;;;;;;;21.54;56.42;99370.47;102248;1120;79974;-59
2021/05/18 12:31:32;;;;;;;7.00;5.50;;;;;;;21.32;56.06;99375.56;102252;1121;81031;-67
2021/05/18 12:33:47;;;;;;;5.20;4.70;;;;;;;20.72;55.91;99373.09;102239;1122;80273;-60
2021/05/18 12:36:07;;;;;;;6.10;5.30;;;;;;;20.49;56.22;99367.13;102218;1122;81207;-61
2021/05/18 12:38:17;;;;;;;6.00;4.60;;;;;;;20.37;56.45;99377.60;102253;1121;79880;-63
2021/05/18 12:40:33;;;;;;;6.50;4.70;;;;;;;20.23;56.03;99381.98;102239;1121;81348;-64
2021/05/18 12:42:40;;;;;;;6.40;5.50;;;;;;;20.17;56.39;99383.09;102214;1120;79311;-65
2021/05/18 12:44:57;;;;;;;6.20;4.70;;;;;;;20.26;56.70;99381.47;102215;1120;80282;-66
2021/05/18 12:47:06;;;;;;;5.00;4.30;;;;;;;20.35;56.47;99384.47;102230;1122;80991;-62
2021/05/18 12:49:34;;;;;;;6.90;4.50;;;;;;;20.21;56.68;99388.84;102234;1121;81620;-61
2021/05/18 12:51:43;;;;;;;7.40;3.90;;;;;;;20.14;56.66;99389.12;102198;1121;79307;-61
2021/05/18 12:54:04;;;;;;;5.70;3.90;;;;;;;19.87;56.59;99397.64;102181;1120;81062;-64
2021/05/18 12:56:31;;;;;;;5.10;3.70;;;;;;;19.64;56.87;99395.42;102229;1120;80197;-62
2021/05/18 12:58:47;;;;;;;4.80;3.80;;;;;;;19.48;57.11;99403.89;102242;1121;78548;-64
2021/05/18 13:01:07;;;;;;;5.00;3.40;;;;;;;19.36;57.15;99404.14;102241;1121;80636;-64
2021/05/18 13:03:19;;;;;;;5.50;4.20;;;;;;;19.16;57.49;99395.86;102208;1121;80541;-65
2021/05/18 13:05:29;;;;;;;9.40;4.30;;;;;;;18.99;57.78;99387.03;102234;1122;80430;-61
2021/05/18 13:07:39;;;;;;;7.30;4.00;;;;;;;18.88;58.20;99391.66;102230;1122;80840;-61
2021/05/18 13:09:45;;;;;;;4.30;3.90;;;;;;;18.85;58.24;99381.23;102206;1120;81449;-63
2021/05/18 13:12:15;;;;;;;4.90;4.00;;;;;;;18.87;58.62;99392.73;102230;1120;80974;-62
2021/05/18 13:14:21;;;;;;;4.20;3.80;;;;;;;18.85;58.88;99387.55;102223;1121;79222;-59
2021/05/18 13:16:34;;;;;;;4.80;3.80;;;;;;;18.85;58.67;99384.81;102188;1120;79588;-59
2021/05/18 13:18:54;;;;;;;4.90;3.50;;;;;;;18.79;58.72;99385.04;102223;1121;79269;-59
2021/05/18 13:21:00;;;;;;;5.70;3.80;;;;;;;18.78;58.72;99386.98;102235;1120;80115;-59
2021/05/18 13:23:09;;;;;;;4.30;3.80;;;;;;;18.81;58.72;99396.56;102168;1120;79931;-59
2021/05/18 13:27:49;;;;;;;6.10;4.60;;;;;;;18.74;59.28;99390.50;102216;1122;80607;-61
2021/05/18 13:29:55;;;;;;;7.10;4.00;;;;;;;18.74;59.43;99391.33;102204;1122;79974;-61
2021/05/18 13:32:01;;;;;;;4.70;4.30;;;;;;;18.70;59.32;99392.14;102198;1121;80631;-60
2021/05/18 13:34:08;;;;;;;4.80;4.40;;;;;;;18.65;59.49;99397.59;102222;1120;81466;-59
2021/05/18 13:36:13;;;;;;;6.40;4.50;;;;;;;18.74;59.36;99390.50;102237;1120;80811;-60
2021/05/18 13:38:19;;;;;;;5.30;4.30;;;;;;;18.78;59.53;99403.39;102226;1122;79751;-61
2021/05/18 13:40:26;;;;;;;6.10;4.50;;;;;;;18.95;59.50;99402.37;102211;1120;80286;-59
2021/05/18 13:42:31;;;;;;;8.50;4.80;;;;;;;18.91;59.28;99402.07;102247;1120;79180;-59
2021/05/18 13:44:37;;;;;;;4.60;4.20;;;;;;;18.93;59.39;99405.36;102195;1121;80840;-59
2021/05/18 13:46:46;;;;;;;6.20;4.40;;;;;;;19.10;59.26;99405.14;102227;1121;80165;-62
2021/05/18 13:48:51;;;;;;;5.10;4.20;;;;;;;18.97;59.23;99406.48;102242;1121;80766;-62
2021/05/18 13:50:57;;;;;;;5.40;4.20;;;;;;;18.98;59.44;99405.37;102222;1121;81549;-63
2021/05/18 13:53:07;;;;;;;4.30;3.90;;;;;;;18.99;59.36;99407.02;102241;1122;80060;-62
2021/05/18 13:55:14;;;;;;;5.60;4.30;;;;;;;19.06;59.10;99415.83;102237;1120;80519;-63
2021/05/18 13:57:21;;;;;;;6.30;4.20;;;;;;;19.00;59.13;99407.86;102220;1121;80987;-63